createdAt,value
2018-06-17T00:01:40.728Z,97927.13
2018-06-17T00:04:10.402Z,97939.52
2018-06-17T00:06:39.468Z,97935.28
2018-06-17T00:09:09.656Z,97936.31
2018-06-17T00:11:39.010Z,97936.19
2018-06-17T00:14:08.351Z,97947.48
2018-06-17T00:16:37.724Z,97946.25
2018-06-17T00:19:07.115Z,97946.14
2018-06-17T00:21:36.525Z,97944.54
2018-06-17T00:24:05.856Z,97946.56
2018-06-17T00:26:35.232Z,97950.59
2018-06-17T00:29:04.591Z,97946.56
2018-06-17T00:31:33.932Z,97944.05
2018-06-17T00:34:03.335Z,97949.80
2018-06-17T00:36:32.680Z,97946.13
2018-06-17T00:39:02.009Z,97943.09
2018-06-17T00:41:31.432Z,97956.02
2018-06-17T00:44:00.764Z,97959.63
2018-06-17T00:46:30.064Z,97959.58
2018-06-17T00:48:59.396Z,97960.45
2018-06-17T00:51:28.781Z,97954.55
2018-06-17T00:53:58.100Z,97954.09
2018-06-17T00:56:27.436Z,97960.47
2018-06-17T00:58:56.760Z,97962.70
2018-06-17T01:01:26.093Z,97962.69
2018-06-17T01:03:55.453Z,97955.91
2018-06-17T01:06:24.795Z,97955.03
2018-06-17T01:08:54.110Z,97956.17
2018-06-17T01:11:23.453Z,97956.13
2018-06-17T01:13:53.315Z,97962.04
2018-06-17T01:16:22.836Z,97960.34
2018-06-17T01:18:52.209Z,97965.33
2018-06-17T01:21:21.621Z,97975.39
2018-06-17T01:23:50.941Z,97974.70
2018-06-17T01:26:20.247Z,97977.14
2018-06-17T01:28:49.625Z,97976.48
2018-06-17T01:31:18.964Z,97973.28
2018-06-17T01:33:48.311Z,97966.81
2018-06-17T01:36:17.355Z,97966.77
2018-06-17T01:38:46.699Z,97971.46
2018-06-17T01:41:16.020Z,97969.15
2018-06-17T01:43:45.327Z,97969.88
2018-06-17T01:46:14.675Z,97974.30
2018-06-17T01:48:44.054Z,97980.14
2018-06-17T01:51:13.331Z,97981.41
2018-06-17T01:53:42.675Z,97982.63
2018-06-17T01:56:11.985Z,97987.52
2018-06-17T01:58:41.323Z,97975.09
2018-06-17T02:01:10.637Z,97982.16
2018-06-17T02:03:45.268Z,97977.77
2018-06-17T02:06:19.968Z,97980.07
2018-06-17T02:08:54.501Z,97978.33
2018-06-17T02:11:28.869Z,97988.87
2018-06-17T02:14:03.187Z,97989.87
2018-06-17T02:16:32.510Z,97984.31
2018-06-17T02:19:01.876Z,97986.63
2018-06-17T02:21:31.214Z,97983.47
2018-06-17T02:24:00.639Z,97986.98
2018-06-17T02:26:29.987Z,97988.67
2018-06-17T02:28:59.339Z,97995.27
2018-06-17T02:31:28.665Z,97986.97
2018-06-17T02:33:57.992Z,97988.06
2018-06-17T02:36:27.680Z,97992.25
2018-06-17T02:38:57.359Z,97990.04
2018-06-17T02:41:27.007Z,98000.02
2018-06-17T02:43:56.659Z,98007.55
2018-06-17T02:46:31.424Z,97991.05
2018-06-17T02:49:05.872Z,97991.41
2018-06-17T02:51:40.379Z,97994.16
2018-06-17T02:54:47.652Z,98001.52
2018-06-17T02:57:20.049Z,97998.18
2018-06-17T02:59:49.357Z,97998.91
2018-06-17T03:02:18.676Z,97997.84
2018-06-17T03:04:48.017Z,97996.50
2018-06-17T03:07:17.348Z,98001.13
2018-06-17T03:09:46.703Z,98006.93
2018-06-17T03:12:16.049Z,98012.19
2018-06-17T03:14:45.352Z,98014.22
2018-06-17T03:17:14.672Z,98017.05
2018-06-17T03:19:44.016Z,98024.65
2018-06-17T03:22:13.340Z,98024.35
2018-06-17T03:24:47.959Z,98022.73
2018-06-17T03:28:24.255Z,98030.21
2018-06-17T03:30:58.785Z,98026.70
2018-06-17T03:33:33.225Z,98023.38
2018-06-17T03:36:07.840Z,98026.92
2018-06-17T03:38:37.407Z,98029.45
2018-06-17T03:41:06.896Z,98028.89
2018-06-17T03:43:36.317Z,98025.09
2018-06-17T03:46:05.697Z,98025.63
2018-06-17T03:48:35.084Z,98037.12
2018-06-17T03:51:04.428Z,98038.33
2018-06-17T03:53:33.845Z,98038.33
2018-06-17T03:56:06.492Z,98032.66
2018-06-17T03:58:35.807Z,98037.48
2018-06-17T04:01:05.133Z,98041.47
2018-06-17T04:03:34.456Z,98035.98
2018-06-17T04:06:03.775Z,98041.47
2018-06-17T04:08:33.108Z,98044.88
2018-06-17T04:11:02.420Z,98045.19
2018-06-17T04:13:31.766Z,98043.65
2018-06-17T04:16:01.164Z,98045.78
2018-06-17T04:18:30.424Z,98047.11
2018-06-17T04:20:59.766Z,98049.47
2018-06-17T04:23:29.097Z,98055.38
2018-06-17T04:25:58.412Z,98047.62
2018-06-17T04:28:27.766Z,98051.13
2018-06-17T04:30:57.621Z,98048.94
2018-06-17T04:33:26.965Z,98053.41
2018-06-17T04:45:11.432Z,98064.15
2018-06-17T04:47:40.764Z,98076.31
2018-06-17T04:50:10.088Z,98077.20
2018-06-17T04:52:39.419Z,98084.52
2018-06-17T04:55:08.735Z,98078.70
2018-06-17T04:57:37.808Z,98084.06
2018-06-17T05:00:07.238Z,98088.78
2018-06-17T05:02:36.557Z,98094.45
2018-06-17T05:05:06.268Z,98101.11
2018-06-17T05:07:35.585Z,98104.94
2018-06-17T05:10:04.984Z,98100.84
2018-06-17T05:12:34.328Z,98092.41
2018-06-17T05:15:04.082Z,98090.14
2018-06-17T05:17:33.412Z,98094.98
2018-06-17T05:20:02.768Z,98096.11
2018-06-17T05:22:32.113Z,98103.20
2018-06-17T05:25:01.462Z,98103.31
2018-06-17T05:27:30.885Z,98099.43
2018-06-17T05:30:00.191Z,98098.31
2018-06-17T05:32:29.500Z,98098.77
2018-06-17T05:34:58.868Z,98096.32
2018-06-17T05:37:28.260Z,98094.27
2018-06-17T05:39:57.575Z,98097.70
2018-06-17T05:42:26.889Z,98089.88
2018-06-17T05:44:56.219Z,98086.73
2018-06-17T05:47:25.573Z,98095.16
2018-06-17T05:49:54.915Z,98095.34
2018-06-17T05:52:24.227Z,98092.90
2018-06-17T05:54:53.564Z,98089.16
2018-06-17T05:57:22.917Z,98087.75
2018-06-17T05:59:52.244Z,98090.25
2018-06-17T06:02:21.572Z,98094.86
2018-06-17T06:04:50.867Z,98097.71
2018-06-17T06:07:20.472Z,98101.54
2018-06-17T06:09:49.807Z,98102.34
2018-06-17T06:12:19.172Z,98106.93
2018-06-17T06:14:48.527Z,98101.88
2018-06-17T06:17:17.827Z,98104.41
2018-06-17T06:19:47.170Z,98100.41
2018-06-17T06:22:16.491Z,98102.77
2018-06-17T06:24:45.869Z,98100.38
2018-06-17T06:27:15.131Z,98098.53
2018-06-17T06:29:44.465Z,98096.53
2018-06-17T06:32:13.805Z,98102.36
2018-06-17T06:34:43.099Z,98097.17
2018-06-17T06:37:12.509Z,98102.91
2018-06-17T06:39:41.784Z,98102.39
2018-06-17T06:42:11.116Z,98106.13
2018-06-17T06:44:40.446Z,98109.42
2018-06-17T06:47:09.835Z,98113.86
2018-06-17T06:49:39.140Z,98117.69
2018-06-17T06:52:08.580Z,98122.48
2018-06-17T06:54:37.912Z,98122.66
2018-06-17T06:57:07.485Z,98123.02
2018-06-17T06:59:36.848Z,98126.48
2018-06-17T07:02:23.256Z,98131.45
2018-06-17T07:05:09.628Z,98126.66
2018-06-17T07:07:56.112Z,98124.14
2018-06-17T07:10:28.803Z,98135.16
2018-06-17T07:12:58.172Z,98138.78
2018-06-17T07:15:44.467Z,98139.61
2018-06-17T07:18:30.845Z,98144.49
2018-06-17T07:21:00.204Z,98139.13
2018-06-17T07:23:29.728Z,98137.70
2018-06-17T07:26:46.571Z,98139.91
2018-06-17T07:29:35.203Z,98134.78
2018-06-17T07:32:04.549Z,98134.47
2018-06-17T07:34:34.125Z,98137.39
2018-06-17T07:37:03.741Z,98130.49
2018-06-17T07:40:48.648Z,98135.72
2018-06-17T07:43:18.004Z,98133.24
2018-06-17T07:45:47.691Z,98132.98
2018-06-17T07:49:42.427Z,98138.60
2018-06-17T07:52:31.674Z,98140.03
2018-06-17T07:55:01.132Z,98131.88
2018-06-17T07:57:31.616Z,98128.64
2018-06-17T08:00:00.997Z,98131.56
2018-06-17T08:02:30.320Z,98137.86
2018-06-17T08:04:59.680Z,98132.64
2018-06-17T08:07:29.000Z,98132.38
2018-06-17T08:09:58.360Z,98137.88
2018-06-17T08:12:27.687Z,98140.27
2018-06-17T08:14:57.051Z,98141.59
2018-06-17T08:17:26.400Z,98145.14
2018-06-17T08:19:55.779Z,98149.61
2018-06-17T08:22:25.084Z,98148.06
2018-06-17T08:24:54.437Z,98158.16
2018-06-17T08:27:23.755Z,98155.73
2018-06-17T08:29:53.073Z,98149.22
2018-06-17T08:32:22.468Z,98150.91
2018-06-17T08:34:51.796Z,98144.67
2018-06-17T08:37:21.125Z,98153.23
2018-06-17T08:39:50.444Z,98155.34
2018-06-17T08:42:19.752Z,98148.73
2018-06-17T08:44:49.123Z,98147.69
2018-06-17T08:47:18.540Z,98143.78
2018-06-17T08:49:47.869Z,98132.86
2018-06-17T08:52:17.221Z,98133.05
2018-06-17T08:54:46.581Z,98130.99
2018-06-17T08:57:16.137Z,98138.94
2018-06-17T08:59:45.772Z,98140.55
2018-06-17T09:02:15.386Z,98143.91
2018-06-17T09:04:45.036Z,98149.77
2018-06-17T09:07:14.316Z,98148.13
2018-06-17T09:09:43.930Z,98149.77
2018-06-17T09:12:13.608Z,98148.87
2018-06-17T09:14:43.275Z,98152.37
2018-06-17T09:17:12.639Z,98154.72
2018-06-17T09:19:41.964Z,98145.98
2018-06-17T09:22:11.293Z,98145.55
2018-06-17T09:24:40.607Z,98147.24
2018-06-17T09:27:09.936Z,98135.73
2018-06-17T09:29:39.242Z,98135.80
2018-06-17T09:32:08.645Z,98133.62
2018-06-17T09:34:37.931Z,98126.80
2018-06-17T09:37:07.300Z,98129.23
2018-06-17T09:39:36.720Z,98128.42
2018-06-17T09:42:06.120Z,98126.05
2018-06-17T09:44:35.468Z,98129.50
2018-06-17T09:47:04.781Z,98129.31
2018-06-17T09:49:34.111Z,98131.88
2018-06-17T09:52:03.429Z,98135.69
2018-06-17T09:54:32.760Z,98142.23
2018-06-17T09:57:02.206Z,98141.55
2018-06-17T09:59:31.545Z,98144.91
2018-06-17T10:02:00.989Z,98149.46
2018-06-17T10:04:30.289Z,98147.50
2018-06-17T10:06:59.642Z,98142.01
2018-06-17T10:09:28.968Z,98141.42
2018-06-17T10:11:58.277Z,98143.81
2018-06-17T10:14:27.592Z,98135.70
2018-06-17T10:16:56.945Z,98139.63
2018-06-17T10:19:26.272Z,98144.33
2018-06-17T10:21:55.576Z,98145.17
2018-06-17T10:24:24.949Z,98143.26
2018-06-17T10:26:54.248Z,98141.72
2018-06-17T10:29:23.679Z,98138.91
2018-06-17T10:31:52.940Z,98141.47
2018-06-17T10:34:22.284Z,98140.97
2018-06-17T10:36:51.610Z,98141.67
2018-06-17T10:39:20.952Z,98141.20
2018-06-17T10:41:50.281Z,98132.30
2018-06-17T10:44:19.654Z,98129.98
2018-06-17T10:46:49.540Z,98132.80
2018-06-17T10:49:18.866Z,98132.62
2018-06-17T10:55:16.164Z,98154.42
2018-06-17T10:57:46.388Z,98153.12
2018-06-17T11:00:15.725Z,98143.61
2018-06-17T11:02:45.048Z,98144.89
2018-06-17T11:05:14.426Z,98143.26
2018-06-17T11:07:43.713Z,98143.30
2018-06-17T11:10:13.037Z,98146.45
2018-06-17T11:12:42.373Z,98146.44
2018-06-17T11:15:11.679Z,98145.48
2018-06-17T11:17:41.016Z,98145.89
2018-06-17T11:20:10.342Z,98143.75
2018-06-17T11:22:39.665Z,98141.95
2018-06-17T11:25:09.398Z,98153.59
2018-06-17T11:27:38.990Z,98147.88
2018-06-17T11:30:08.640Z,98147.45
2018-06-17T11:32:38.257Z,98150.38
2018-06-17T11:35:07.607Z,98147.91
2018-06-17T11:37:36.940Z,98138.20
2018-06-17T11:40:06.259Z,98145.52
2018-06-17T11:42:35.628Z,98136.99
2018-06-17T11:45:05.002Z,98138.11
2018-06-17T11:47:34.369Z,98130.30
2018-06-17T11:50:03.740Z,98133.87
2018-06-17T11:52:33.073Z,98134.33
2018-06-17T11:55:02.423Z,98134.47
2018-06-17T11:57:32.101Z,98138.17
2018-06-17T12:00:01.786Z,98126.44
2018-06-17T12:02:31.364Z,98133.27
2018-06-17T12:05:00.903Z,98135.13
2018-06-17T12:07:30.296Z,98133.37
2018-06-17T12:09:59.620Z,98133.12
2018-06-17T12:12:29.005Z,98133.84
2018-06-17T12:14:58.354Z,98133.75
2018-06-17T12:17:27.712Z,98129.80
2018-06-17T12:19:57.072Z,98125.87
2018-06-17T12:22:26.400Z,98124.98
2018-06-17T12:24:55.759Z,98123.94
2018-06-17T12:27:25.216Z,98127.39
2018-06-17T12:29:54.655Z,98130.82
2018-06-17T12:32:24.394Z,98126.73
2018-06-17T12:34:53.749Z,98130.01
2018-06-17T12:37:23.280Z,98121.39
2018-06-17T12:39:52.391Z,98127.11
2018-06-17T12:42:21.724Z,98125.12
2018-06-17T12:44:51.049Z,98122.81
2018-06-17T12:47:20.359Z,98132.67
2018-06-17T12:49:49.708Z,98131.58
2018-06-17T12:52:19.036Z,98128.47
2018-06-17T12:54:48.407Z,98134.49
2018-06-17T12:57:17.737Z,98134.60
2018-06-17T12:59:47.064Z,98141.20
2018-06-17T13:02:16.388Z,98147.84
2018-06-17T13:04:45.824Z,98143.71
2018-06-17T13:07:15.255Z,98135.09
2018-06-17T13:09:44.601Z,98140.41
2018-06-17T13:12:13.965Z,98134.95
2018-06-17T13:14:43.409Z,98134.60
2018-06-17T13:17:12.765Z,98143.75
2018-06-17T13:19:42.148Z,98143.19
2018-06-17T13:22:11.477Z,98138.64
2018-06-17T13:24:40.856Z,98135.28
2018-06-17T13:27:10.178Z,98131.23
2018-06-17T13:29:39.543Z,98140.20
2018-06-17T13:32:08.880Z,98134.05
2018-06-17T13:34:38.229Z,98128.77
2018-06-17T13:37:07.603Z,98133.36
2018-06-17T13:39:36.973Z,98133.63
2018-06-17T13:42:06.689Z,98127.27
2018-06-17T13:44:36.039Z,98130.97
2018-06-17T13:47:05.619Z,98128.54
2018-06-17T13:49:34.987Z,98128.09
2018-06-17T13:52:04.371Z,98130.65
2018-06-17T13:54:33.710Z,98129.65
2018-06-17T13:57:03.075Z,98136.34
2018-06-17T13:59:32.449Z,98132.83
2018-06-17T14:02:01.839Z,98142.28
2018-06-17T14:04:31.198Z,98138.67
2018-06-17T14:07:00.570Z,98143.13
2018-06-17T14:09:29.927Z,98137.06
2018-06-17T14:12:01.302Z,98138.95
2018-06-17T14:14:30.698Z,98138.39
2018-06-17T14:17:00.252Z,98147.61
2018-06-17T14:19:29.597Z,98149.77
2018-06-17T14:21:59.251Z,98140.73
2018-06-17T14:24:28.597Z,98142.89
2018-06-17T14:26:57.945Z,98147.11
2018-06-17T14:29:27.285Z,98146.91
2018-06-17T14:31:56.751Z,98145.95
2018-06-17T14:34:26.462Z,98147.69
2018-06-17T14:36:56.050Z,98156.11
2018-06-17T14:39:25.704Z,98152.69
2018-06-17T14:42:00.622Z,98153.34
2018-06-17T14:44:35.335Z,98149.00
2018-06-17T14:47:10.290Z,98148.55
2018-06-17T14:49:44.873Z,98146.42
2018-06-17T14:52:19.369Z,98146.69
2018-06-17T14:54:48.684Z,98152.13
2018-06-17T14:57:18.011Z,98149.55
2018-06-17T14:59:47.374Z,98145.02
2018-06-17T15:02:16.752Z,98146.48
2018-06-17T15:04:46.087Z,98141.72
2018-06-17T15:07:15.413Z,98147.60
2018-06-17T15:09:44.769Z,98141.78
2018-06-17T15:12:14.052Z,98145.76
2018-06-17T15:14:43.415Z,98143.34
2018-06-17T15:17:12.715Z,98145.66
2018-06-17T15:19:42.056Z,98149.73
2018-06-17T15:22:11.406Z,98145.19
2018-06-17T15:24:40.705Z,98150.03
2018-06-17T15:27:10.041Z,98148.08
2018-06-17T15:29:39.365Z,98144.97
2018-06-17T15:32:13.907Z,98146.70
2018-06-17T15:34:48.318Z,98148.72
2018-06-17T15:37:26.234Z,98148.02
2018-06-17T15:39:58.925Z,98152.28
2018-06-17T15:42:28.757Z,98155.63
2018-06-17T15:44:58.073Z,98145.86
2018-06-17T15:55:17.394Z,98155.59
2018-06-17T15:57:46.700Z,98146.70
2018-06-17T16:00:16.060Z,98150.03
2018-06-17T16:02:45.389Z,98155.09
2018-06-17T16:05:14.744Z,98154.06
2018-06-17T16:07:44.305Z,98156.83
2018-06-17T16:10:13.731Z,98160.44
2018-06-17T16:13:50.146Z,98160.45
2018-06-17T16:16:24.681Z,98162.97
2018-06-17T16:18:59.338Z,98161.81
2018-06-17T16:21:28.647Z,98158.88
2018-06-17T16:23:58.000Z,98162.21
2018-06-17T16:26:27.351Z,98158.05
2018-06-17T16:28:56.672Z,98163.66
2018-06-17T16:31:26.025Z,98170.97
2018-06-17T16:33:55.363Z,98167.66
2018-06-17T16:36:24.700Z,98169.84
2018-06-17T16:38:54.120Z,98174.88
2018-06-17T16:41:23.448Z,98179.20
2018-06-17T16:43:53.043Z,98184.45
2018-06-17T16:46:22.337Z,98186.80
2018-06-17T16:48:51.645Z,98186.94
2018-06-17T16:51:26.110Z,98180.72
2018-06-17T16:54:00.727Z,98180.23
2018-06-17T16:56:35.300Z,98180.94
2018-06-17T16:59:09.876Z,98192.91
2018-06-17T17:01:39.232Z,98188.95
2018-06-17T17:04:08.581Z,98191.75
2018-06-17T17:06:37.900Z,98192.09
2018-06-17T17:09:10.268Z,98194.89
2018-06-17T17:11:40.440Z,98201.15
2018-06-17T17:14:10.891Z,98198.16
2018-06-17T17:16:40.606Z,98196.98
2018-06-17T17:19:09.944Z,98194.67
2018-06-17T17:21:39.264Z,98187.34
2018-06-17T17:24:08.616Z,98194.13
2018-06-17T17:26:37.956Z,98198.56
2018-06-17T17:29:07.302Z,98207.27
2018-06-17T17:31:41.837Z,98210.94
2018-06-17T17:34:20.036Z,98223.69
2018-06-17T17:36:54.569Z,98219.69
2018-06-17T17:39:29.111Z,98212.59
2018-06-17T17:41:58.521Z,98227.34
2018-06-17T17:44:27.923Z,98218.63
2018-06-17T17:47:02.464Z,98221.16
2018-06-17T17:49:32.020Z,98220.52
2018-06-17T17:52:01.366Z,98225.36
2018-06-17T17:54:30.496Z,98233.66
2018-06-17T17:57:00.574Z,98233.32
2018-06-17T17:59:30.724Z,98233.83
2018-06-17T18:02:00.161Z,98232.78
2018-06-17T18:04:29.745Z,98232.19
2018-06-17T18:06:59.581Z,98236.30
2018-06-17T18:09:29.274Z,98235.68
2018-06-17T18:11:59.896Z,98237.06
2018-06-17T18:14:30.816Z,98243.59
2018-06-17T18:17:00.928Z,98241.26
2018-06-17T18:19:30.914Z,98247.11
2018-06-17T18:22:00.733Z,98259.69
2018-06-17T18:24:31.236Z,98264.20
2018-06-17T18:27:06.975Z,98268.09
2018-06-17T18:29:43.387Z,98267.93
2018-06-17T18:32:20.118Z,98268.33
2018-06-17T18:34:56.663Z,98262.45
2018-06-17T18:37:28.565Z,98268.33
2018-06-17T18:40:00.220Z,98272.36
2018-06-17T18:42:32.309Z,98267.20
2018-06-17T18:45:04.347Z,98273.17
2018-06-17T18:47:36.429Z,98266.39
2018-06-17T18:50:08.833Z,98276.78
2018-06-17T18:52:41.686Z,98272.44
2018-06-17T18:55:14.502Z,98272.75
2018-06-17T18:57:47.324Z,98266.25
2018-06-17T19:00:19.383Z,98273.30
2018-06-17T19:02:51.594Z,98273.13
2018-06-17T19:05:25.209Z,98278.34
2018-06-17T19:07:57.423Z,98282.45
2018-06-17T19:10:34.176Z,98287.81
2018-06-17T19:13:10.991Z,98286.93
2018-06-17T19:15:47.719Z,98286.02
2018-06-17T19:18:19.969Z,98290.94
2018-06-17T19:20:52.103Z,98291.81
2018-06-17T19:23:24.350Z,98293.80
2018-06-17T19:25:56.229Z,98304.89
2018-06-17T19:28:28.515Z,98303.20
2018-06-17T19:31:00.685Z,98301.76
2018-06-17T19:33:32.932Z,98295.59
2018-06-17T19:36:05.079Z,98309.19
2018-06-17T19:38:37.353Z,98315.09
2018-06-17T19:41:09.924Z,98311.22
2018-06-17T19:43:42.508Z,98312.44
2018-06-17T19:46:14.695Z,98314.24
2018-06-17T19:48:46.918Z,98319.45
2018-06-17T19:51:23.471Z,98318.13
2018-06-17T19:54:00.713Z,98324.10
2018-06-17T19:56:37.574Z,98318.89
2018-06-17T19:59:14.349Z,98313.73
2018-06-17T20:01:47.009Z,98316.02
2018-06-17T20:04:19.159Z,98318.91
2018-06-17T20:06:51.531Z,98316.14
2018-06-17T20:09:23.656Z,98308.98
2018-06-17T20:11:55.955Z,98308.63
2018-06-17T20:14:28.083Z,98310.16
2018-06-17T20:17:00.240Z,98313.56
2018-06-17T20:19:32.901Z,98315.17
2018-06-17T20:22:05.048Z,98313.70
2018-06-17T20:24:37.003Z,98322.70
2018-06-17T20:27:08.951Z,98323.60
2018-06-17T20:29:41.042Z,98317.41
2018-06-17T20:32:17.769Z,98327.97
2018-06-17T20:34:53.509Z,98336.58
2018-06-17T20:37:30.272Z,98340.97
2018-06-17T20:40:06.652Z,98341.30
2018-06-17T20:42:43.015Z,98347.05
2018-06-17T20:45:15.076Z,98350.33
2018-06-17T20:47:45.597Z,98343.68
2018-06-17T20:50:15.409Z,98357.77
2018-06-17T20:52:44.821Z,98350.22
2018-06-17T20:55:14.241Z,98352.99
2018-06-17T20:57:43.693Z,98362.05
2018-06-17T21:00:13.068Z,98369.14
2018-06-17T21:02:42.532Z,98368.82
2018-06-17T21:05:12.025Z,98369.27
2018-06-17T21:07:41.145Z,98378.32
2018-06-17T21:10:10.536Z,98379.95
2018-06-17T21:12:39.857Z,98381.02
2018-06-17T21:15:14.308Z,98377.16
2018-06-17T21:17:43.684Z,98387.11
2018-06-17T21:20:18.268Z,98385.84
2018-06-17T21:22:52.776Z,98390.09
2018-06-17T21:25:27.401Z,98389.16
2018-06-17T21:27:58.176Z,98400.69
2018-06-17T21:30:27.529Z,98401.64
2018-06-17T21:32:56.849Z,98406.44
2018-06-17T21:35:27.114Z,98400.81
2018-06-17T21:37:56.423Z,98401.98
2018-06-17T21:40:25.762Z,98399.70
2018-06-17T21:42:55.140Z,98402.22
2018-06-17T21:45:24.448Z,98400.86
2018-06-17T21:47:53.788Z,98398.84
2018-06-17T21:50:23.123Z,98396.25
2018-06-17T21:52:52.510Z,98403.17
2018-06-17T21:55:21.877Z,98406.09
2018-06-17T21:57:51.205Z,98406.16
2018-06-17T22:00:20.535Z,98404.81
2018-06-17T22:02:49.852Z,98409.52
2018-06-17T22:05:19.151Z,98409.75
2018-06-17T22:07:53.662Z,98412.38
2018-06-17T22:10:28.200Z,98413.22
2018-06-17T22:12:59.402Z,98412.48
2018-06-17T22:15:34.064Z,98415.09
2018-06-17T22:18:03.844Z,98425.66
2018-06-17T22:20:33.179Z,98422.95
2018-06-17T22:23:02.524Z,98426.73
2018-06-17T22:25:31.847Z,98430.70
2018-06-17T22:28:01.199Z,98430.59
2018-06-17T22:30:30.590Z,98430.10
2018-06-17T22:32:59.927Z,98430.44
2018-06-17T22:35:29.236Z,98427.95
2018-06-17T22:37:58.546Z,98432.00
2018-06-17T22:40:27.896Z,98433.62
2018-06-17T22:42:57.212Z,98434.56
2018-06-17T22:45:26.756Z,98428.55
2018-06-17T22:47:58.408Z,98424.45
2018-06-17T22:50:28.093Z,98425.22
2018-06-17T22:53:08.488Z,98424.20
2018-06-17T22:55:37.843Z,98424.91
2018-06-17T22:58:12.258Z,98431.02
2018-06-17T23:00:46.659Z,98433.84
2018-06-17T23:03:21.087Z,98429.11
2018-06-17T23:05:55.641Z,98425.24
2018-06-17T23:08:30.181Z,98427.78
2018-06-17T23:10:59.447Z,98429.75
2018-06-17T23:13:28.769Z,98428.77
2018-06-17T23:15:58.100Z,98431.27
2018-06-17T23:18:27.433Z,98430.66
2018-06-17T23:20:56.744Z,98433.98
2018-06-17T23:23:26.143Z,98441.52
2018-06-17T23:25:55.452Z,98436.27
2018-06-17T23:28:24.838Z,98438.27
2018-06-17T23:30:54.176Z,98439.56
2018-06-17T23:33:23.509Z,98434.92
2018-06-17T23:35:52.865Z,98427.04
2018-06-17T23:38:22.187Z,98426.34
2018-06-17T23:40:51.529Z,98434.83
2018-06-17T23:43:20.895Z,98432.06
2018-06-17T23:45:55.492Z,98437.86
2018-06-17T23:48:30.155Z,98432.55
2018-06-17T23:51:04.889Z,98429.42
2018-06-17T23:53:39.564Z,98435.09
2018-06-17T23:56:10.060Z,98441.28
2018-06-17T23:58:40.056Z,98435.18
